createdAt,value
2018-08-07T00:02:04.048Z,22.60
2018-08-07T00:04:31.412Z,22.50
2018-08-07T00:06:58.735Z,22.60
2018-08-07T00:09:26.099Z,22.80
2018-08-07T00:11:53.420Z,22.20
2018-08-07T00:14:20.788Z,22.40
2018-08-07T00:16:48.825Z,22.40
2018-08-07T00:21:43.548Z,22.30
2018-08-07T00:24:10.941Z,22.20
2018-08-07T00:26:38.401Z,22.20
2018-08-07T00:29:06.322Z,22.20
2018-08-07T00:31:33.632Z,22.20
2018-08-07T00:34:00.938Z,22.30
2018-08-07T00:36:28.396Z,22.10
2018-08-07T00:38:55.729Z,22.10
2018-08-07T00:41:23.128Z,22.20
2018-08-07T00:43:50.524Z,22.10
2018-08-07T00:46:18.324Z,22.10
2018-08-07T00:48:45.820Z,22.00
2018-08-07T00:51:13.159Z,22.00
2018-08-07T00:53:40.932Z,22.00
2018-08-07T00:56:08.282Z,21.90
2018-08-07T00:58:35.733Z,21.50
2018-08-07T01:01:03.074Z,22.00
2018-08-07T01:03:30.813Z,21.90
2018-08-07T01:05:58.169Z,22.00
2018-08-07T01:08:25.637Z,22.00
2018-08-07T01:10:53.045Z,21.90
2018-08-07T01:13:20.375Z,21.90
2018-08-07T01:15:47.804Z,21.90
2018-08-07T01:18:15.155Z,22.00
2018-08-07T01:20:42.524Z,21.90
2018-08-07T01:23:10.255Z,21.80
2018-08-07T01:25:37.648Z,21.60
2018-08-07T01:28:05.174Z,21.70
2018-08-07T01:30:32.697Z,21.20
2018-08-07T01:33:00.262Z,21.70
2018-08-07T01:35:28.873Z,21.70
2018-08-07T01:37:56.446Z,21.60
2018-08-07T01:40:24.005Z,21.60
2018-08-07T01:42:51.513Z,21.60
2018-08-07T01:45:19.215Z,21.60
2018-08-07T01:47:46.886Z,21.60
2018-08-07T01:50:15.030Z,21.60
2018-08-07T01:52:42.573Z,21.50
2018-08-07T01:55:15.780Z,21.60
2018-08-07T01:57:43.330Z,21.50
2018-08-07T02:00:12.816Z,21.50
2018-08-07T02:02:40.342Z,21.50
2018-08-07T02:05:09.704Z,21.50
2018-08-07T02:07:37.249Z,21.50
2018-08-07T02:10:07.255Z,21.40
2018-08-07T02:12:34.818Z,21.40
2018-08-07T02:15:02.396Z,21.40
2018-08-07T02:17:29.940Z,21.40
2018-08-07T02:19:57.425Z,21.70
2018-08-07T02:22:24.932Z,21.20
2018-08-07T02:24:52.508Z,21.30
2018-08-07T02:27:20.090Z,21.20
2018-08-07T02:29:47.684Z,20.90
2018-08-07T02:32:15.290Z,21.20
2018-08-07T02:34:42.839Z,21.20
2018-08-07T02:37:10.395Z,21.20
2018-08-07T02:39:37.896Z,21.00
2018-08-07T02:42:05.813Z,21.10
2018-08-07T02:44:33.314Z,21.10
2018-08-07T02:47:00.853Z,21.00
2018-08-07T02:49:28.493Z,21.00
2018-08-07T02:51:56.425Z,20.90
2018-08-07T02:54:23.954Z,20.90
2018-08-07T02:59:19.045Z,21.00
2018-08-07T03:01:46.352Z,20.90
2018-08-07T03:04:13.948Z,20.80
2018-08-07T03:06:41.358Z,20.80
2018-08-07T03:09:09.845Z,20.90
2018-08-07T03:11:37.274Z,20.80
2018-08-07T03:14:04.981Z,20.80
2018-08-07T03:16:32.381Z,20.90
2018-08-07T03:18:59.980Z,20.80
2018-08-07T03:21:27.494Z,20.80
2018-08-07T03:23:55.008Z,20.70
2018-08-07T03:26:22.549Z,20.70
2018-08-07T03:28:50.150Z,20.70
2018-08-07T03:31:18.058Z,20.80
2018-08-07T03:33:45.547Z,21.00
2018-08-07T03:36:13.058Z,20.60
2018-08-07T03:38:40.640Z,20.50
2018-08-07T03:41:11.284Z,20.70
2018-08-07T03:43:38.808Z,20.60
2018-08-07T03:46:06.328Z,20.70
2018-08-07T03:48:33.781Z,20.50
2018-08-07T03:51:01.495Z,20.50
2018-08-07T03:55:56.317Z,20.40
2018-08-07T03:58:23.629Z,20.50
2018-08-07T04:00:52.896Z,20.40
2018-08-07T04:05:47.541Z,20.30
2018-08-07T04:08:14.829Z,20.30
2018-08-07T04:10:42.965Z,20.40
2018-08-07T04:13:17.773Z,20.40
2018-08-07T04:15:45.089Z,20.30
2018-08-07T04:18:12.438Z,20.30
2018-08-07T04:20:40.005Z,20.30
2018-08-07T04:23:07.431Z,20.30
2018-08-07T04:25:34.887Z,20.60
2018-08-07T04:28:02.197Z,20.30
2018-08-07T04:30:29.517Z,19.90
2018-08-07T04:32:57.020Z,20.30
2018-08-07T04:35:24.335Z,20.60
2018-08-07T04:37:51.851Z,20.30
2018-08-07T04:40:19.214Z,20.20
2018-08-07T04:42:46.749Z,20.30
2018-08-07T04:45:15.413Z,20.20
2018-08-07T04:47:43.497Z,20.10
2018-08-07T04:50:10.930Z,20.30
2018-08-07T04:52:38.621Z,20.30
2018-08-07T04:55:06.975Z,20.30
2018-08-07T04:57:35.173Z,20.30
2018-08-07T05:00:02.847Z,20.30
2018-08-07T05:02:30.480Z,20.40
2018-08-07T05:04:57.829Z,20.40
2018-08-07T05:07:25.157Z,20.60
2018-08-07T05:09:52.568Z,20.50
2018-08-07T05:12:19.917Z,20.50
2018-08-07T05:14:47.578Z,20.50
2018-08-07T05:17:14.955Z,20.50
2018-08-07T05:19:42.288Z,20.60
2018-08-07T05:22:09.649Z,20.60
2018-08-07T05:24:37.003Z,20.70
2018-08-07T05:27:04.397Z,20.60
2018-08-07T05:31:59.116Z,20.70
2018-08-07T05:34:26.451Z,20.80
2018-08-07T05:36:53.835Z,20.80
2018-08-07T05:39:21.192Z,20.90
2018-08-07T05:41:48.594Z,20.90
2018-08-07T05:44:15.894Z,21.00
2018-08-07T05:46:43.269Z,21.10
2018-08-07T05:49:10.653Z,21.10
2018-08-07T05:51:38.419Z,21.20
2018-08-07T05:54:05.786Z,21.30
2018-08-07T05:56:33.139Z,21.40
2018-08-07T05:59:00.517Z,21.70
2018-08-07T06:01:27.969Z,21.50
2018-08-07T06:03:55.835Z,21.50
2018-08-07T06:06:23.324Z,21.80
2018-08-07T06:08:50.648Z,21.90
2018-08-07T06:11:17.962Z,22.00
2018-08-07T06:13:45.437Z,22.20
2018-08-07T06:16:12.992Z,22.30
2018-08-07T06:18:41.065Z,22.40
2018-08-07T06:21:08.506Z,22.60
2018-08-07T06:23:36.039Z,22.80
2018-08-07T06:26:03.396Z,22.90
2018-08-07T06:28:30.767Z,23.20
2018-08-07T06:30:58.077Z,23.30
2018-08-07T06:33:25.585Z,23.40
2018-08-07T06:35:52.907Z,23.50
2018-08-07T06:38:20.280Z,23.80
2018-08-07T06:40:48.028Z,23.80
2018-08-07T06:43:15.434Z,24.20
2018-08-07T06:45:42.922Z,24.30
2018-08-07T06:48:10.504Z,24.50
2018-08-07T06:50:38.160Z,24.70
2018-08-07T06:53:06.063Z,24.90
2018-08-07T06:55:33.692Z,25.10
2018-08-07T06:58:02.004Z,25.40
2018-08-07T07:00:29.553Z,25.50
2018-08-07T07:02:57.197Z,25.80
2018-08-07T07:05:24.778Z,25.90
2018-08-07T07:07:52.539Z,26.10
2018-08-07T07:10:19.888Z,26.40
2018-08-07T07:12:47.418Z,26.60
2018-08-07T07:15:15.712Z,26.80
2018-08-07T07:17:44.613Z,27.00
2018-08-07T07:20:13.785Z,27.20
2018-08-07T07:22:42.301Z,27.40
2018-08-07T07:25:10.380Z,27.40
2018-08-07T07:27:38.306Z,27.80
2018-08-07T07:30:13.405Z,28.00
2018-08-07T07:32:41.092Z,28.40
2018-08-07T07:35:10.118Z,28.70
2018-08-07T07:37:37.477Z,29.00
2018-08-07T07:40:06.778Z,29.50
2018-08-07T07:42:34.580Z,30.20
2018-08-07T07:45:01.986Z,30.90
2018-08-07T07:47:29.345Z,32.00
2018-08-07T07:49:56.675Z,33.40
2018-08-07T07:52:24.007Z,35.30
2018-08-07T07:54:51.326Z,37.40
2018-08-07T07:57:18.679Z,39.40
2018-08-07T07:59:49.357Z,41.20
2018-08-07T08:02:16.625Z,42.50
2018-08-07T08:04:43.963Z,43.70
2018-08-07T08:07:11.358Z,44.30
2018-08-07T08:09:38.684Z,44.90
2018-08-07T08:12:11.331Z,45.90
2018-08-07T08:14:38.622Z,46.70
2018-08-07T08:17:05.962Z,47.40
2018-08-07T08:19:33.273Z,48.30
2018-08-07T08:22:00.642Z,48.70
2018-08-07T08:24:27.958Z,48.70
2018-08-07T08:26:56.969Z,48.80
2018-08-07T08:29:24.492Z,49.30
2018-08-07T08:31:51.572Z,49.50
2018-08-07T08:34:19.008Z,49.00
2018-08-07T08:36:46.320Z,48.40
2018-08-07T08:39:16.833Z,47.20
2018-08-07T08:41:45.812Z,45.70
2018-08-07T08:44:13.177Z,44.00
2018-08-07T08:46:40.563Z,42.50
2018-08-07T08:49:07.910Z,41.20
2018-08-07T08:51:35.701Z,40.10
2018-08-07T08:54:03.051Z,38.90
2018-08-07T08:56:30.346Z,38.00
2018-08-07T08:58:57.714Z,37.40
2018-08-07T09:01:25.109Z,36.60
2018-08-07T09:03:52.453Z,36.30
2018-08-07T09:06:19.989Z,36.30
2018-08-07T09:08:47.340Z,35.80
2018-08-07T09:11:14.751Z,35.40
2018-08-07T09:13:42.153Z,34.90
2018-08-07T09:16:09.518Z,34.90
2018-08-07T09:18:36.902Z,34.70
2018-08-07T09:21:04.282Z,34.70
2018-08-07T09:23:31.864Z,34.60
2018-08-07T09:25:59.370Z,34.60
2018-08-07T09:28:26.639Z,34.60
2018-08-07T09:30:53.993Z,34.70
2018-08-07T09:33:21.323Z,34.70
2018-08-07T09:35:48.862Z,34.60
2018-08-07T09:38:16.306Z,34.70
2018-08-07T09:40:43.691Z,34.60
2018-08-07T09:43:11.177Z,34.60
2018-08-07T09:45:38.598Z,34.50
2018-08-07T09:48:12.823Z,34.30
2018-08-07T09:50:40.438Z,34.30
2018-08-07T09:53:07.957Z,34.30
2018-08-07T09:55:35.501Z,34.40
2018-08-07T09:58:02.868Z,34.50
2018-08-07T10:00:36.755Z,34.60
2018-08-07T10:03:08.749Z,34.80
2018-08-07T10:08:03.483Z,35.10
2018-08-07T10:10:30.864Z,35.10
2018-08-07T10:13:03.336Z,35.20
2018-08-07T10:15:30.689Z,35.50
2018-08-07T10:17:58.052Z,35.40
2018-08-07T10:20:25.437Z,35.30
2018-08-07T10:22:52.833Z,35.20
2018-08-07T10:25:20.344Z,35.50
2018-08-07T10:27:48.234Z,35.50
2018-08-07T10:30:19.065Z,35.50
2018-08-07T10:32:47.181Z,35.70
2018-08-07T10:35:14.838Z,35.80
2018-08-07T10:37:42.876Z,35.80
2018-08-07T10:40:12.794Z,35.80
2018-08-07T10:42:44.988Z,36.10
2018-08-07T10:45:14.058Z,36.20
2018-08-07T10:47:41.504Z,36.30
2018-08-07T10:50:12.547Z,36.40
2018-08-07T10:52:40.503Z,36.30
2018-08-07T10:57:42.568Z,36.80
2018-08-07T11:00:15.425Z,36.70
2018-08-07T11:02:43.681Z,36.50
2018-08-07T11:05:11.513Z,36.70
2018-08-07T11:07:42.631Z,36.70
2018-08-07T11:10:11.271Z,36.70
2018-08-07T11:12:38.676Z,37.10
2018-08-07T11:15:10.890Z,37.10
2018-08-07T11:17:38.342Z,37.10
2018-08-07T11:20:08.803Z,37.10
2018-08-07T11:22:36.245Z,37.10
2018-08-07T11:25:03.845Z,36.90
2018-08-07T11:27:31.205Z,36.80
2018-08-07T11:29:59.489Z,36.70
2018-08-07T11:32:26.808Z,36.70
2018-08-07T11:34:58.448Z,36.90
2018-08-07T11:37:26.104Z,36.90
2018-08-07T11:39:53.440Z,37.00
2018-08-07T11:42:20.797Z,37.20
2018-08-07T11:44:48.197Z,37.20
2018-08-07T11:47:15.610Z,37.20
2018-08-07T11:49:42.981Z,37.30
2018-08-07T11:52:10.688Z,37.40
2018-08-07T11:54:38.097Z,37.60
2018-08-07T11:57:05.937Z,37.50
2018-08-07T11:59:33.299Z,37.60
2018-08-07T12:02:00.736Z,37.50
2018-08-07T12:04:28.093Z,37.50
2018-08-07T12:06:55.445Z,37.50
2018-08-07T12:09:22.761Z,37.40
2018-08-07T12:11:50.200Z,37.40
2018-08-07T12:14:17.561Z,37.40
2018-08-07T12:16:44.934Z,37.40
2018-08-07T12:19:12.421Z,37.30
2018-08-07T12:21:39.797Z,37.20
2018-08-07T12:24:07.173Z,37.40
2018-08-07T12:26:34.535Z,37.50
2018-08-07T12:29:01.886Z,37.60
2018-08-07T12:31:29.487Z,37.70
2018-08-07T12:33:56.793Z,37.70
2018-08-07T12:36:24.125Z,37.60
2018-08-07T12:38:51.588Z,37.70
2018-08-07T12:41:19.017Z,37.70
2018-08-07T12:43:46.497Z,37.60
2018-08-07T12:46:13.944Z,37.50
2018-08-07T12:48:41.291Z,37.60
2018-08-07T12:51:08.699Z,37.40
2018-08-07T12:53:36.079Z,37.40
2018-08-07T12:56:03.490Z,37.60
2018-08-07T12:58:30.851Z,37.60
2018-08-07T13:00:58.286Z,37.60
2018-08-07T13:03:25.672Z,37.70
2018-08-07T13:05:53.018Z,37.70
2018-08-07T13:08:20.453Z,37.50
2018-08-07T13:10:47.749Z,37.50
2018-08-07T13:13:15.144Z,37.70
2018-08-07T13:15:42.522Z,37.80
2018-08-07T13:18:09.914Z,37.80
2018-08-07T13:20:37.420Z,37.80
2018-08-07T13:23:04.846Z,37.80
2018-08-07T13:25:32.304Z,37.90
2018-08-07T13:27:59.790Z,37.80
2018-08-07T13:30:27.850Z,37.80
2018-08-07T13:32:55.809Z,37.80
2018-08-07T13:35:23.295Z,37.70
2018-08-07T13:37:51.397Z,37.70
2018-08-07T13:40:20.230Z,37.60
2018-08-07T13:42:47.709Z,37.70
2018-08-07T13:45:17.585Z,37.80
2018-08-07T13:47:45.197Z,37.90
2018-08-07T13:50:14.168Z,37.80
2018-08-07T13:52:42.360Z,37.90
2018-08-07T13:55:10.726Z,37.80
2018-08-07T13:57:38.185Z,37.70
2018-08-07T14:00:13.068Z,37.80
2018-08-07T14:02:41.051Z,37.70
2018-08-07T14:05:08.418Z,37.70
2018-08-07T14:07:36.094Z,37.80
2018-08-07T14:10:03.913Z,37.90
2018-08-07T14:12:31.481Z,37.90
2018-08-07T14:14:58.853Z,37.90
2018-08-07T14:17:26.262Z,38.10
2018-08-07T14:19:53.795Z,38.10
2018-08-07T14:22:21.193Z,38.00
2018-08-07T14:24:48.736Z,37.90
2018-08-07T14:27:16.261Z,38.00
2018-08-07T14:29:43.667Z,38.10
2018-08-07T14:32:11.177Z,38.00
2018-08-07T14:34:38.643Z,38.10
2018-08-07T14:37:06.093Z,37.90
2018-08-07T14:39:35.554Z,37.90
2018-08-07T14:42:02.998Z,37.80
2018-08-07T14:44:30.337Z,37.70
2018-08-07T14:46:57.732Z,37.80
2018-08-07T14:49:25.136Z,37.70
2018-08-07T14:51:52.767Z,37.70
2018-08-07T14:54:20.119Z,37.80
2018-08-07T14:56:47.521Z,37.80
2018-08-07T14:59:14.890Z,37.80
2018-08-07T15:01:42.313Z,37.70
2018-08-07T15:04:09.841Z,37.70
2018-08-07T15:06:37.199Z,37.80
2018-08-07T15:09:07.625Z,37.70
2018-08-07T15:11:36.730Z,37.80
2018-08-07T15:14:04.178Z,37.70
2018-08-07T15:16:31.557Z,37.60
2018-08-07T15:18:58.937Z,37.60
2018-08-07T15:21:26.801Z,37.60
2018-08-07T15:23:54.230Z,37.60
2018-08-07T15:26:21.664Z,37.60
2018-08-07T15:28:49.089Z,37.70
2018-08-07T15:31:16.481Z,37.70
2018-08-07T15:33:43.774Z,37.80
2018-08-07T15:36:11.118Z,37.80
2018-08-07T15:38:38.467Z,37.70
2018-08-07T15:41:05.853Z,37.60
2018-08-07T15:43:33.144Z,37.60
2018-08-07T15:46:00.446Z,37.50
2018-08-07T15:48:27.841Z,37.50
2018-08-07T15:50:55.309Z,37.30
2018-08-07T15:53:22.685Z,37.30
2018-08-07T15:55:50.600Z,37.30
2018-08-07T15:58:17.999Z,37.30
2018-08-07T16:00:45.534Z,37.30
2018-08-07T16:03:12.959Z,37.50
2018-08-07T16:05:40.384Z,37.40
2018-08-07T16:08:07.818Z,37.40
2018-08-07T16:10:35.239Z,37.30
2018-08-07T16:13:02.611Z,37.30
2018-08-07T16:15:38.936Z,37.20
2018-08-07T16:18:35.992Z,37.10
2018-08-07T16:21:05.994Z,37.10
2018-08-07T16:23:33.577Z,37.00
2018-08-07T16:26:02.352Z,37.00
2018-08-07T16:28:29.908Z,37.00
2018-08-07T16:30:57.600Z,36.90
2018-08-07T16:33:25.166Z,37.00
2018-08-07T16:35:52.686Z,36.80
2018-08-07T16:38:24.665Z,36.90
2018-08-07T16:40:52.209Z,36.90
2018-08-07T16:43:19.781Z,36.80
2018-08-07T16:45:47.362Z,36.70
2018-08-07T16:48:15.039Z,36.60
2018-08-07T16:50:47.467Z,36.80
2018-08-07T16:53:15.229Z,36.60
2018-08-07T16:55:42.797Z,36.50
2018-08-07T16:58:10.458Z,36.50
2018-08-07T17:00:38.168Z,36.40
2018-08-07T17:03:10.295Z,36.40
2018-08-07T17:05:37.978Z,36.30
2018-08-07T17:08:05.661Z,36.20
2018-08-07T17:10:33.173Z,36.20
2018-08-07T17:13:00.674Z,36.10
2018-08-07T17:15:33.102Z,36.00
2018-08-07T17:18:00.645Z,35.90
2018-08-07T17:20:28.181Z,36.00
2018-08-07T17:22:55.861Z,35.80
2018-08-07T17:25:24.005Z,35.90
2018-08-07T17:27:59.997Z,35.80
2018-08-07T17:30:28.538Z,35.80
2018-08-07T17:33:10.510Z,35.60
2018-08-07T17:38:10.299Z,35.40
2018-08-07T17:40:37.940Z,35.50
2018-08-07T17:43:05.489Z,35.50
2018-08-07T17:45:33.777Z,35.50
2018-08-07T17:48:01.267Z,35.40
2018-08-07T17:52:57.911Z,35.40
2018-08-07T17:55:25.520Z,35.30
2018-08-07T17:57:54.275Z,35.20
2018-08-07T18:00:23.082Z,35.20
2018-08-07T18:02:50.708Z,35.10
2018-08-07T18:05:18.770Z,35.10
2018-08-07T18:07:47.961Z,35.10
2018-08-07T18:10:16.895Z,35.10
2018-08-07T18:12:45.288Z,35.00
2018-08-07T18:15:14.303Z,35.00
2018-08-07T18:17:42.802Z,34.90
2018-08-07T18:20:13.778Z,34.80
2018-08-07T18:25:09.918Z,34.50
2018-08-07T18:27:37.562Z,34.40
2018-08-07T18:30:08.110Z,34.30
2018-08-07T18:32:36.087Z,34.20
2018-08-07T18:35:04.709Z,34.10
2018-08-07T18:37:32.228Z,34.00
2018-08-07T18:39:59.780Z,33.90
2018-08-07T18:42:28.810Z,33.70
2018-08-07T18:44:56.106Z,33.60
2018-08-07T18:47:23.423Z,33.60
2018-08-07T18:49:50.768Z,33.30
2018-08-07T18:52:18.440Z,33.20
2018-08-07T18:55:38.678Z,33.10
2018-08-07T18:58:06.047Z,33.00
2018-08-07T19:00:33.394Z,32.80
2018-08-07T19:03:00.725Z,32.70
2018-08-07T19:05:32.832Z,32.60
2018-08-07T19:08:00.125Z,32.50
2018-08-07T19:10:27.552Z,32.40
2018-08-07T19:12:54.922Z,32.30
2018-08-07T19:15:22.561Z,32.30
2018-08-07T19:17:49.925Z,32.10
2018-08-07T19:20:19.924Z,32.00
2018-08-07T19:22:47.650Z,31.70
2018-08-07T19:25:15.258Z,31.70
2018-08-07T19:27:45.398Z,31.70
2018-08-07T19:30:14.827Z,31.60
2018-08-07T19:32:42.513Z,31.40
2018-08-07T19:35:11.334Z,31.30
2018-08-07T19:37:39.062Z,31.00
2018-08-07T19:40:12.752Z,31.20
2018-08-07T19:42:40.685Z,31.00
2018-08-07T19:45:09.277Z,31.00
2018-08-07T19:47:36.931Z,30.60
2018-08-07T19:50:11.574Z,30.70
2018-08-07T19:52:39.377Z,30.60
2018-08-07T19:55:09.865Z,30.60
2018-08-07T19:57:39.319Z,30.50
2018-08-07T20:00:12.373Z,30.40
2018-08-07T20:02:40.094Z,30.20
2018-08-07T20:05:07.795Z,30.20
2018-08-07T20:07:35.498Z,30.00
2018-08-07T20:10:10.795Z,30.00
2018-08-07T20:12:38.697Z,29.90
2018-08-07T20:15:09.198Z,29.80
2018-08-07T20:17:36.860Z,29.70
2018-08-07T20:20:05.247Z,29.70
2018-08-07T20:22:33.544Z,29.60
2018-08-07T20:27:28.738Z,29.50
2018-08-07T20:29:56.473Z,29.40
2018-08-07T20:32:24.182Z,29.30
2018-08-07T20:34:52.044Z,29.30
2018-08-07T20:37:20.297Z,29.20
2018-08-07T20:39:48.191Z,29.10
2018-08-07T20:42:15.816Z,29.00
2018-08-07T20:44:43.782Z,29.00
2018-08-07T20:47:11.520Z,28.90
2018-08-07T20:49:39.100Z,28.80
2018-08-07T20:52:06.924Z,28.80
2018-08-07T20:54:34.525Z,28.70
2018-08-07T20:57:02.147Z,28.60
2018-08-07T20:59:29.735Z,28.40
2018-08-07T21:04:24.712Z,28.50
2018-08-07T21:06:52.234Z,28.50
2018-08-07T21:09:19.946Z,28.40
2018-08-07T21:11:47.846Z,28.30
2018-08-07T21:14:15.418Z,28.30
2018-08-07T21:16:43.073Z,28.20
2018-08-07T21:19:13.329Z,28.10
2018-08-07T21:21:41.132Z,28.10
2018-08-07T21:24:08.585Z,28.00
2018-08-07T21:26:36.137Z,28.00
2018-08-07T21:29:03.657Z,28.00
2018-08-07T21:31:31.374Z,27.90
2018-08-07T21:34:03.107Z,27.80
2018-08-07T21:36:30.621Z,27.80
2018-08-07T21:41:25.685Z,27.60
2018-08-07T21:43:53.192Z,27.60
2018-08-07T21:48:48.481Z,27.40
2018-08-07T21:51:16.046Z,27.40
2018-08-07T21:56:39.114Z,27.30
2018-08-07T21:59:06.753Z,27.20
2018-08-07T22:01:34.368Z,27.20
2018-08-07T22:04:12.420Z,27.20
2018-08-07T22:06:40.578Z,27.10
2018-08-07T22:09:08.562Z,27.10
2018-08-07T22:11:36.154Z,27.00
2018-08-07T22:14:06.303Z,26.90
2018-08-07T22:16:33.844Z,26.90
2018-08-07T22:19:01.437Z,26.90
2018-08-07T22:21:29.107Z,26.90
2018-08-07T22:23:56.771Z,27.00
2018-08-07T22:26:24.371Z,27.00
2018-08-07T22:28:52.097Z,27.00
2018-08-07T22:31:19.876Z,27.00
2018-08-07T22:33:53.136Z,27.00
2018-08-07T22:36:20.606Z,27.00
2018-08-07T22:38:48.333Z,27.00
2018-08-07T22:41:16.061Z,26.90
2018-08-07T22:43:43.645Z,27.00
2018-08-07T22:46:11.877Z,27.00
2018-08-07T22:48:39.454Z,27.00
2018-08-07T22:51:06.965Z,27.00
2018-08-07T22:53:34.533Z,26.80
2018-08-07T22:56:02.030Z,27.00
2018-08-07T22:58:29.626Z,27.10
2018-08-07T23:00:57.197Z,27.10
2018-08-07T23:03:24.771Z,27.10
2018-08-07T23:05:52.403Z,27.10
2018-08-07T23:08:20.006Z,27.20
2018-08-07T23:10:47.653Z,27.20
2018-08-07T23:13:15.390Z,27.20
2018-08-07T23:15:43.274Z,27.30
2018-08-07T23:18:11.036Z,27.30
2018-08-07T23:20:38.699Z,27.30
2018-08-07T23:23:06.404Z,27.30
2018-08-07T23:25:34.246Z,27.30
2018-08-07T23:28:01.833Z,27.20
2018-08-07T23:30:29.346Z,27.20
2018-08-07T23:32:56.879Z,27.20
2018-08-07T23:35:24.397Z,27.20
2018-08-07T23:37:51.882Z,27.20
2018-08-07T23:40:19.503Z,27.30
2018-08-07T23:42:47.119Z,27.30
2018-08-07T23:45:15.457Z,27.30
2018-08-07T23:47:43.144Z,27.40
2018-08-07T23:50:12.871Z,27.40
2018-08-07T23:52:41.259Z,27.30
2018-08-07T23:55:09.033Z,27.40
2018-08-07T23:57:36.912Z,27.40
